Estación Meteorológica Peña el Pijo (Robertgarden) [ 12/11/18 09:26:49 CET ]

Fecha Hora Presion(HPa) Temp (°C) Humedad % Rocio (°C) Viento ( m/s) Direccion Lluvia 1Hora(mm) Lluvia 24H(mm) LLuvia Total(mm)
2018-Dec-02 01:01:43 1012.300 7.3 53 -1.7         154.88
2018-Dec-02 02:06:12 1012.000 6.9 54 -1.8         154.88
2018-Dec-02 03:01:41 1012.100 7.4 59 -0.1         154.88
2018-Dec-02 04:01:40 1012.400 7.5 61 0.5         154.88
2018-Dec-02 05:01:43 1012.000 6.6 66 0.7         154.88
2018-Dec-02 06:01:48 1012.300 6.1 68 0.7         154.88
2018-Dec-02 07:01:55 1012.700 4.5 72 -0.1         154.88
2018-Dec-02 08:01:43 1012.900 3.4 75 -0.6         154.88
2018-Dec-02 09:01:48 1013.100 4.4 78 0.9         154.88
2018-Dec-02 10:01:43 1013.400 10.9 78 7.2         154.88
2018-Dec-02 11:01:44 1013.700 17.4 55 8.2         154.88
2018-Dec-02 12:01:39 1013.100 18.0 48 6.8         154.88
2018-Dec-02 13:01:46 1012.300 17.6 50 7.0 2.2 NW     154.88
2018-Dec-02 14:01:49 1012.100 19.2 45 6.9         154.88
2018-Dec-02 15:01:43 1011.700 18.1 47 6.5         154.88
2018-Dec-02 16:01:49 1012.100 17.3 48 6.1 1.8 NNW     154.88
2018-Dec-02 17:01:51 1012.400 15.8 50 5.4         154.88
2018-Dec-02 18:01:42 1012.700 12.9 56 4.3         154.88
2018-Dec-02 19:01:54 1013.100 10.9 64 4.3         154.88
2018-Dec-02 20:01:49 1013.900 10.9 63 4.1         154.88
2018-Dec-02 21:02:04 1014.100 9.4 67 3.5         154.88
2018-Dec-02 22:01:49 1014.200 8.5 69 3.1         154.88
2018-Dec-02 23:01:59 1013.900 9.5 72 4.7         154.88

Temperatura Máxima:19°    Temperatura Mínima:
Presión Máxima:1014.200 Hpa    Presión Mínima:1011.700 Hpa


Volver